Time;durP1;ratioP1;P1;durP2;ratioP2;P2;SDS_P1;SDS_P2;PMS_P1;PMS_P2;Temp;Humidity;BMP_temperature;BMP_pressure;BME280_temperature;BME280_humidity;BME280_pressure;Samples;Min_cycle;Max_cycle;Signal;HPM_P1;HPM_P2
2023/10/01 00:01:00;;;;;;;13.60;6.43;;;;;13.60;99533.00;;;;5035373;28;20162;-66
2023/10/01 00:03:27;;;;;;;12.20;7.03;;;;;13.60;99534.00;;;;5035016;28;20132;-65
2023/10/01 00:05:54;;;;;;;13.07;7.28;;;;;13.60;99534.00;;;;5035194;28;20084;-65
2023/10/01 00:08:21;;;;;;;10.90;6.57;;;;;13.60;99536.00;;;;5035387;28;20048;-65
2023/10/01 00:10:48;;;;;;;11.13;6.25;;;;;13.50;99530.00;;;;5035385;28;20132;-66
2023/10/01 00:13:15;;;;;;;11.82;6.63;;;;;13.50;99528.00;;;;5034024;28;20050;-65
2023/10/01 00:15:42;;;;;;;13.43;6.53;;;;;13.30;99521.00;;;;5033308;28;20120;-65
2023/10/01 00:18:09;;;;;;;13.68;7.53;;;;;13.40;99526.00;;;;5035019;28;20096;-66
2023/10/01 00:20:36;;;;;;;15.27;6.70;;;;;13.40;99524.00;;;;5035216;28;20474;-65
2023/10/01 00:23:03;;;;;;;14.18;7.35;;;;;13.40;99523.00;;;;5035019;28;20067;-65
2023/10/01 00:25:32;;;;;;;10.07;6.00;;;;;13.30;99523.00;;;;5034310;28;20573;-65
2023/10/01 00:27:59;;;;;;;11.32;6.90;;;;;13.30;99525.00;;;;5034909;28;20034;-65
2023/10/01 00:30:31;;;;;;;13.20;6.93;;;;;13.20;99515.00;;;;5034912;28;20649;-65
2023/10/01 00:33:05;;;;;;;13.52;6.97;;;;;13.20;99524.00;;;;5034958;28;20049;-65
2023/10/01 00:35:32;;;;;;;12.00;6.68;;;;;13.20;99533.00;;;;5033064;28;20494;-65
2023/10/01 00:37:59;;;;;;;13.07;6.53;;;;;13.00;99527.00;;;;5034827;28;20076;-65
2023/10/01 00:40:27;;;;;;;12.60;7.05;;;;;13.00;99522.00;;;;5034809;28;20049;-66
2023/10/01 00:42:54;;;;;;;13.13;6.72;;;;;13.00;99522.00;;;;5033379;28;20517;-65
2023/10/01 00:45:21;;;;;;;14.57;7.45;;;;;13.00;99525.00;;;;5016502;28;20089;-65
2023/10/01 00:47:48;;;;;;;12.88;6.63;;;;;13.00;99519.00;;;;5033189;28;20045;-65
2023/10/01 00:50:16;;;;;;;11.45;7.00;;;;;12.90;99527.00;;;;5034614;28;20041;-66
2023/10/01 00:52:44;;;;;;;8.88;5.72;;;;;12.90;99524.00;;;;5034626;28;20049;-66
2023/10/01 00:55:13;;;;;;;11.85;6.47;;;;;12.80;99520.00;;;;5034091;28;20103;-66
2023/10/01 00:57:41;;;;;;;15.88;7.68;;;;;12.70;99525.00;;;;5033172;28;20052;-65
2023/10/01 01:00:15;;;;;;;11.43;6.65;;;;;12.70;99520.00;;;;5034390;28;20430;-66
2023/10/01 01:05:49;;;;;;;10.95;6.60;;;;;12.60;99526.00;;;;5032999;28;20148;-66
2023/10/01 01:08:22;;;;;;;16.25;7.07;;;;;12.50;99511.00;;;;5034110;28;20044;-66
2023/10/01 01:10:51;;;;;;;11.73;6.63;;;;;12.50;99502.00;;;;5034343;28;20398;-66
2023/10/01 01:13:19;;;;;;;13.70;7.00;;;;;12.50;99503.00;;;;5033986;28;20053;-66
2023/10/01 01:15:47;;;;;;;10.90;5.45;;;;;12.40;99501.00;;;;5033432;28;20045;-66
2023/10/01 01:18:14;;;;;;;12.73;6.88;;;;;12.40;99503.00;;;;5032785;28;20132;-66
2023/10/01 01:20:45;;;;;;;10.05;5.82;;;;;12.30;99489.00;;;;5034002;28;20041;-66
2023/10/01 01:23:16;;;;;;;17.73;7.18;;;;;12.30;99497.00;;;;5033905;28;20045;-66
2023/10/01 01:25:44;;;;;;;10.75;6.10;;;;;12.20;99493.00;;;;5032170;28;20144;-66
2023/10/01 01:28:15;;;;;;;13.18;7.07;;;;;12.20;99499.00;;;;5033869;28;20045;-65
2023/10/01 01:30:42;;;;;;;11.52;6.45;;;;;12.20;99491.00;;;;5032595;28;20049;-66
2023/10/01 01:33:21;;;;;;;12.73;6.65;;;;;12.20;99482.00;;;;5033669;28;20128;-66
2023/10/01 01:35:49;;;;;;;12.63;6.55;;;;;12.20;99487.00;;;;5032120;28;20053;-66
2023/10/01 01:38:15;;;;;;;16.60;7.25;;;;;12.20;99486.00;;;;5032555;28;20042;-66
2023/10/01 01:40:47;;;;;;;10.27;6.28;;;;;12.10;99477.00;;;;5033636;28;20390;-66
2023/10/01 01:43:21;;;;;;;11.65;5.93;;;;;12.10;99470.00;;;;5033685;28;20064;-66
2023/10/01 01:45:55;;;;;;;9.27;6.05;;;;;12.00;99469.00;;;;5015502;28;20045;-66
2023/10/01 01:50:58;;;;;;;11.10;5.47;;;;;12.00;99476.00;;;;5032334;28;20457;-63
2023/10/01 01:53:34;;;;;;;8.68;5.22;;;;;12.00;99479.00;;;;5032057;28;20461;-63
2023/10/01 01:56:16;;;;;;;10.35;5.93;;;;;12.10;99483.00;;;;5032201;28;20442;-66
2023/10/01 01:58:43;;;;;;;9.55;5.55;;;;;12.10;99475.00;;;;5032024;28;20041;-66
2023/10/01 02:03:46;;;;;;;12.05;5.90;;;;;12.10;99484.00;;;;5032681;28;20561;-65
2023/10/01 02:06:14;;;;;;;11.73;5.90;;;;;12.00;99477.00;;;;5032051;28;20072;-66
2023/10/01 02:08:53;;;;;;;11.10;5.53;;;;;12.00;99493.00;;;;5032949;28;20044;-66
2023/10/01 02:11:21;;;;;;;8.70;5.10;;;;;12.10;99486.00;;;;5031831;28;20049;-66
2023/10/01 02:13:51;;;;;;;14.48;6.97;;;;;12.10;99484.00;;;;5030990;28;20076;-66
2023/10/01 02:16:19;;;;;;;10.80;5.68;;;;;12.00;99478.00;;;;5015365;28;20057;-65
2023/10/01 02:18:56;;;;;;;9.15;5.13;;;;;12.00;99481.00;;;;5031401;28;20056;-66
2023/10/01 02:21:49;;;;;;;11.43;6.15;;;;;12.00;99475.00;;;;5031628;28;20045;-65
2023/10/01 02:24:23;;;;;;;10.05;6.07;;;;;12.00;99485.00;;;;5030994;28;20053;-66
2023/10/01 02:26:53;;;;;;;10.07;5.75;;;;;12.00;99480.00;;;;5031522;28;20041;-66
2023/10/01 02:29:24;;;;;;;10.50;5.35;;;;;12.10;99472.00;;;;5032621;28;20576;-66
2023/10/01 02:31:57;;;;;;;13.25;6.05;;;;;12.10;99475.00;;;;5032643;28;20505;-66
2023/10/01 02:34:28;;;;;;;13.57;5.90;;;;;12.20;99474.00;;;;5030714;28;20049;-66
2023/10/01 02:36:55;;;;;;;8.70;5.15;;;;;12.30;99477.00;;;;5032541;28;20337;-68
2023/10/01 02:39:28;;;;;;;11.25;4.75;;;;;12.30;99478.00;;;;5032632;28;20044;-66
2023/10/01 02:44:47;;;;;;;10.63;6.13;;;;;12.30;99470.00;;;;5031768;28;20049;-66
2023/10/01 02:47:20;;;;;;;11.93;6.07;;;;;12.30;99471.00;;;;5032315;28;20072;-66
2023/10/01 02:49:49;;;;;;;11.52;5.63;;;;;12.30;99476.00;;;;5031120;28;20100;-66
2023/10/01 02:52:18;;;;;;;11.73;6.47;;;;;12.30;99465.00;;;;5032294;28;20043;-66
2023/10/01 02:54:53;;;;;;;17.13;6.00;;;;;12.20;99466.00;;;;5031724;28;20050;-66
2023/10/01 02:57:24;;;;;;;12.40;6.18;;;;;12.30;99458.00;;;;5030972;28;20132;-67
2023/10/01 03:02:39;;;;;;;10.73;5.60;;;;;12.10;99449.00;;;;5032075;28;20076;-66
2023/10/01 03:05:08;;;;;;;10.93;5.90;;;;;11.90;99442.00;;;;5031566;28;20065;-66
2023/10/01 03:07:38;;;;;;;11.75;5.68;;;;;11.80;99439.00;;;;5030879;28;20044;-66
2023/10/01 03:10:46;;;;;;;10.57;6.10;;;;;11.70;99436.00;;;;5030960;28;20533;-65
2023/10/01 03:13:15;;;;;;;11.40;6.63;;;;;11.60;99430.00;;;;5031026;28;20108;-66
2023/10/01 03:15:44;;;;;;;10.75;6.25;;;;;11.50;99429.00;;;;5031258;28;20449;-66
2023/10/01 03:25:59;;;;;;;11.93;6.05;;;;;11.90;99427.00;;;;5032282;28;20053;-67
2023/10/01 03:28:32;;;;;;;13.65;6.07;;;;;12.00;99428.00;;;;5032770;28;20435;-66
2023/10/01 03:31:09;;;;;;;12.05;5.72;;;;;12.00;99431.00;;;;5033052;28;20052;-66
2023/10/01 03:33:40;;;;;;;8.90;5.28;;;;;11.90;99431.00;;;;5031873;28;20045;-66
2023/10/01 03:36:11;;;;;;;12.40;5.90;;;;;11.90;99424.00;;;;5032871;28;20053;-65
2023/10/01 03:38:43;;;;;;;10.23;5.28;;;;;12.00;99427.00;;;;5032923;28;20134;-66
2023/10/01 03:41:21;;;;;;;11.43;5.43;;;;;12.00;99424.00;;;;5032704;28;20045;-66
2023/10/01 03:43:50;;;;;;;9.75;5.60;;;;;11.90;99423.00;;;;5032103;28;20042;-67
2023/10/01 03:54:51;;;;;;;9.23;4.88;;;;;12.00;99437.00;;;;5031292;28;20080;-65
2023/10/01 03:57:19;;;;;;;9.95;5.15;;;;;12.00;99432.00;;;;5031655;28;20060;-65
2023/10/01 03:59:53;;;;;;;9.07;4.97;;;;;12.00;99433.00;;;;5032044;28;20050;-65
2023/10/01 04:05:21;;;;;;;9.70;4.95;;;;;12.10;99445.00;;;;5031097;28;19921;-64
2023/10/01 04:07:51;;;;;;;9.60;5.32;;;;;12.10;99430.00;;;;5031644;28;20519;-65
2023/10/01 04:10:28;;;;;;;10.07;6.13;;;;;12.00;99426.00;;;;5031749;28;20059;-65
2023/10/01 04:13:00;;;;;;;7.78;4.75;;;;;12.00;99426.00;;;;5031634;28;20053;-64
2023/10/01 04:15:27;;;;;;;12.65;6.45;;;;;12.00;99422.00;;;;5031028;28;20120;-64
2023/10/01 04:21:17;;;;;;;9.27;5.25;;;;;11.80;99427.00;;;;5031669;28;20499;-66
2023/10/01 04:23:57;;;;;;;11.40;5.43;;;;;11.70;99428.00;;;;5031120;28;20049;-65
2023/10/01 04:26:25;;;;;;;9.75;5.95;;;;;11.70;99435.00;;;;5030123;28;20064;-65
2023/10/01 04:28:54;;;;;;;10.95;6.40;;;;;11.60;99436.00;;;;5031401;28;20045;-66
2023/10/01 04:34:11;;;;;;;9.05;5.63;;;;;11.50;99442.00;;;;5030826;28;20578;-65
2023/10/01 04:36:51;;;;;;;10.75;6.18;;;;;11.40;99436.00;;;;5031274;28;20137;-65
2023/10/01 04:39:18;;;;;;;8.85;5.47;;;;;11.50;99445.00;;;;5030181;28;20046;-65
2023/10/01 04:41:47;;;;;;;9.38;5.28;;;;;11.60;99450.00;;;;5031905;28;20519;-65
2023/10/01 04:44:19;;;;;;;9.85;6.10;;;;;11.70;99454.00;;;;5034280;28;20132;-65
2023/10/01 04:46:46;;;;;;;10.45;6.55;;;;;11.60;99455.00;;;;5034830;28;20053;-65
2023/10/01 04:49:31;;;;;;;12.23;6.07;;;;;11.70;99461.00;;;;5034777;28;20049;-65
2023/10/01 04:52:10;;;;;;;9.73;5.43;;;;;11.70;99466.00;;;;5036662;28;20045;-66
2023/10/01 04:54:39;;;;;;;9.90;5.78;;;;;11.70;99457.00;;;;5034104;28;20045;-65
2023/10/01 04:57:06;;;;;;;9.93;5.75;;;;;11.50;99451.00;;;;5034602;28;20045;-66
2023/10/01 04:59:33;;;;;;;10.38;5.47;;;;;11.30;99457.00;;;;5034470;28;20478;-66
2023/10/01 05:02:18;;;;;;;14.18;6.55;;;;;11.20;99460.00;;;;5034611;28;20136;-66
2023/10/01 05:04:46;;;;;;;9.75;5.40;;;;;11.20;99465.00;;;;5034053;28;20038;-65
2023/10/01 05:07:15;;;;;;;9.93;5.22;;;;;11.40;99461.00;;;;5035896;28;20584;-65
2023/10/01 05:09:43;;;;;;;11.15;6.20;;;;;11.50;99461.00;;;;5033082;28;20107;-65
2023/10/01 05:12:11;;;;;;;9.05;5.28;;;;;11.60;99464.00;;;;5034531;28;20048;-65
2023/10/01 05:14:59;;;;;;;10.18;5.85;;;;;11.60;99471.00;;;;5033774;28;20072;-66
2023/10/01 05:17:30;;;;;;;9.48;5.53;;;;;11.50;99467.00;;;;5034328;28;20076;-66
2023/10/01 05:19:58;;;;;;;8.23;4.97;;;;;11.50;99465.00;;;;5034251;28;20038;-65
2023/10/01 05:22:26;;;;;;;12.23;5.20;;;;;11.20;99471.00;;;;5032885;28;20084;-65
2023/10/01 05:24:53;;;;;;;11.68;5.65;;;;;11.10;99469.00;;;;5033584;28;20052;-66
2023/10/01 05:27:19;;;;;;;10.50;5.75;;;;;11.20;99477.00;;;;5033997;28;20491;-66
2023/10/01 05:29:46;;;;;;;10.88;5.32;;;;;11.30;99480.00;;;;5033928;28;20041;-65
2023/10/01 05:32:13;;;;;;;9.30;4.88;;;;;11.40;99476.00;;;;5035530;28;20049;-66
2023/10/01 05:34:46;;;;;;;10.13;5.30;;;;;11.40;99481.00;;;;5033458;28;20129;-66
2023/10/01 05:37:24;;;;;;;10.02;5.32;;;;;11.30;99491.00;;;;5033766;28;20489;-66
2023/10/01 05:39:55;;;;;;;10.77;5.32;;;;;11.30;99487.00;;;;5033857;28;20037;-66
2023/10/01 05:42:36;;;;;;;9.30;5.30;;;;;11.30;99490.00;;;;5032785;28;20106;-66
2023/10/01 05:45:07;;;;;;;13.00;6.63;;;;;11.30;99490.00;;;;5033058;28;20502;-66
2023/10/01 05:47:41;;;;;;;10.18;5.93;;;;;11.30;99484.00;;;;5033491;28;20159;-65
2023/10/01 05:50:09;;;;;;;8.77;5.72;;;;;11.20;99485.00;;;;5033753;28;20120;-66
2023/10/01 05:52:40;;;;;;;10.70;5.15;;;;;11.20;99486.00;;;;5033077;28;20128;-66
2023/10/01 05:55:12;;;;;;;13.27;6.30;;;;;11.20;99487.00;;;;5033079;28;20049;-66
2023/10/01 05:57:39;;;;;;;11.85;5.90;;;;;11.20;99492.00;;;;5032360;28;20449;-65
2023/10/01 06:00:16;;;;;;;9.07;5.55;;;;;11.20;99503.00;;;;5032221;28;20442;-66
2023/10/01 06:03:00;;;;;;;9.60;5.03;;;;;11.10;99504.00;;;;5033550;28;20426;-65
2023/10/01 06:05:33;;;;;;;;;;;;;11.20;99509.00;;;;5033335;28;20100;-65
2023/10/01 06:08:12;;;;;;;10.50;5.00;;;;;11.20;99506.00;;;;5032100;28;19921;-66
2023/10/01 06:10:59;;;;;;;9.75;5.40;;;;;11.30;99503.00;;;;5032039;28;20149;-65
2023/10/01 06:13:28;;;;;;;10.80;5.78;;;;;11.30;99514.00;;;;5031685;28;20046;-66
2023/10/01 06:16:11;;;;;;;12.30;5.70;;;;;11.30;99503.00;;;;5031937;28;20050;-66
2023/10/01 06:18:42;;;;;;;10.37;4.77;;;;;11.30;99509.00;;;;5033126;28;20402;-65
2023/10/01 06:21:10;;;;;;;9.07;5.47;;;;;11.20;99503.00;;;;5032862;28;20545;-66
2023/10/01 06:23:49;;;;;;;13.48;7.30;;;;;11.20;99500.00;;;;5032363;28;20041;-66
2023/10/01 06:26:22;;;;;;;10.05;5.65;;;;;11.30;99500.00;;;;5032892;28;20049;-66
2023/10/01 06:28:49;;;;;;;10.65;5.07;;;;;11.30;99502.00;;;;5032924;28;20045;-66
2023/10/01 06:31:16;;;;;;;12.38;6.25;;;;;11.40;99494.00;;;;5032787;28;20081;-66
2023/10/01 06:33:44;;;;;;;12.40;7.00;;;;;11.40;99510.00;;;;5032268;28;20175;-65
2023/10/01 06:36:21;;;;;;;12.30;5.68;;;;;11.60;99511.00;;;;5032682;28;20045;-67
2023/10/01 06:38:49;;;;;;;11.40;6.47;;;;;11.60;99509.00;;;;5032656;28;20044;-66
2023/10/01 06:41:18;;;;;;;12.10;6.35;;;;;11.60;99506.00;;;;5032362;28;20088;-66
2023/10/01 06:43:49;;;;;;;10.85;5.90;;;;;11.60;99512.00;;;;5032206;28;20056;-65
2023/10/01 06:46:21;;;;;;;10.20;6.10;;;;;11.70;99505.00;;;;5031449;28;20052;-65
2023/10/01 06:48:50;;;;;;;9.27;5.75;;;;;11.80;99506.00;;;;5031085;28;20045;-65
2023/10/01 06:51:21;;;;;;;11.82;5.60;;;;;11.90;99512.00;;;;5032516;28;20041;-65
2023/10/01 06:54:05;;;;;;;16.05;7.80;;;;;12.00;99510.00;;;;5030637;28;20049;-65
2023/10/01 06:56:35;;;;;;;11.68;7.38;;;;;12.20;99511.00;;;;5032366;28;20056;-66
2023/10/01 07:01:35;;;;;;;13.65;7.20;;;;;12.50;99515.00;;;;5032284;28;20052;-66
2023/10/01 07:04:03;;;;;;;10.30;7.03;;;;;12.50;99520.00;;;;5029617;28;20068;-66
2023/10/01 07:06:30;;;;;;;13.80;8.25;;;;;12.50;99516.00;;;;5032075;28;20053;-66
2023/10/01 07:08:58;;;;;;;12.77;5.88;;;;;12.60;99527.00;;;;5032396;28;20080;-66
2023/10/01 07:11:28;;;;;;;10.02;5.45;;;;;12.70;99526.00;;;;5030880;28;20052;-66
2023/10/01 07:13:56;;;;;;;11.95;6.15;;;;;12.90;99520.00;;;;5031560;28;20041;-66
2023/10/01 07:16:44;;;;;;;12.00;6.28;;;;;12.80;99516.00;;;;5032289;28;20046;-66
2023/10/01 07:19:13;;;;;;;10.07;6.55;;;;;12.90;99510.00;;;;5030788;28;20128;-66
2023/10/01 07:21:41;;;;;;;7.95;5.63;;;;;13.00;99505.00;;;;5032259;28;20041;-66
2023/10/01 07:24:10;;;;;;;10.02;5.80;;;;;13.20;99511.00;;;;5030394;28;20095;-68
2023/10/01 07:26:40;;;;;;;13.90;6.10;;;;;13.40;99513.00;;;;5032265;28;20128;-68
2023/10/01 07:29:07;;;;;;;15.80;9.05;;;;;13.50;99517.00;;;;5032243;28;20091;-68
2023/10/01 07:31:36;;;;;;;12.52;7.00;;;;;13.60;99515.00;;;;5032330;28;20045;-67
2023/10/01 07:34:13;;;;;;;11.20;5.78;;;;;13.70;99521.00;;;;5031655;28;20452;-67
2023/10/01 07:36:43;;;;;;;10.18;6.13;;;;;13.90;99519.00;;;;5030660;28;20467;-67
2023/10/01 07:39:13;;;;;;;14.05;7.28;;;;;14.00;99517.00;;;;5030936;28;20415;-67
2023/10/01 07:41:44;;;;;;;11.57;7.13;;;;;14.10;99521.00;;;;5032194;28;20103;-67
2023/10/01 07:44:11;;;;;;;14.60;10.48;;;;;14.20;99519.00;;;;5032053;28;20509;-67
2023/10/01 07:46:39;;;;;;;15.98;9.18;;;;;14.40;99516.00;;;;5033330;28;20510;-68
2023/10/01 07:49:09;;;;;;;11.50;6.45;;;;;14.50;99514.00;;;;5032665;28;20041;-69
2023/10/01 07:51:38;;;;;;;17.70;11.48;;;;;14.50;99522.00;;;;5033070;28;20050;-68
2023/10/01 07:54:12;;;;;;;14.40;8.60;;;;;14.60;99524.00;;;;5032889;28;20133;-68
2023/10/01 07:56:49;;;;;;;18.80;10.80;;;;;14.80;99523.00;;;;5032198;28;20072;-68
2023/10/01 07:59:17;;;;;;;10.57;7.40;;;;;15.00;99526.00;;;;5032118;28;20041;-68
2023/10/01 08:01:45;;;;;;;13.27;7.88;;;;;15.20;99528.00;;;;5034200;28;20057;-68
2023/10/01 08:04:59;;;;;;;13.32;8.15;;;;;15.30;99531.00;;;;5036215;28;20038;-66
2023/10/01 08:07:05;;;;;;;11.10;6.63;;;;;15.50;99533.00;;;;5032808;28;20095;-68
2023/10/01 08:09:33;;;;;;;14.40;9.00;;;;;15.40;99530.00;;;;5036375;28;20050;-68
2023/10/01 08:12:05;;;;;;;10.70;6.55;;;;;15.50;99527.00;;;;5038952;28;20128;-68
2023/10/01 08:14:33;;;;;;;12.93;7.43;;;;;15.60;99538.00;;;;5043208;28;20054;-68
2023/10/01 08:17:01;;;;;;;12.30;7.22;;;;;15.60;99534.00;;;;5062401;28;20041;-68
2023/10/01 08:22:14;;;;;;;20.10;11.93;;;;;16.00;99532.00;;;;5075192;28;20025;-67
2023/10/01 08:24:45;;;;;;;21.17;13.30;;;;;16.30;99533.00;;;;5073919;28;20056;-67
2023/10/01 08:27:14;;;;;;;14.57;8.02;;;;;16.40;99530.00;;;;5068469;28;20049;-68
2023/10/01 08:32:38;;;;;;;11.60;7.20;;;;;16.60;99533.00;;;;5075041;28;20076;-67
2023/10/01 08:35:06;;;;;;;73.75;46.78;;;;;16.70;99532.00;;;;5069005;28;20053;-66
2023/10/01 08:37:37;;;;;;;21.08;12.98;;;;;16.80;99534.00;;;;5074583;28;20049;-67
2023/10/01 08:40:13;;;;;;;25.75;15.88;;;;;17.00;99537.00;;;;5071122;28;20073;-67
2023/10/01 08:42:45;;;;;;;15.43;10.18;;;;;17.10;99532.00;;;;5065388;28;20560;-68
2023/10/01 08:45:12;;;;;;;13.38;8.75;;;;;17.30;99536.00;;;;5054926;28;20044;-67
2023/10/01 08:47:42;;;;;;;20.17;14.18;;;;;17.40;99536.00;;;;5055195;28;20678;-67
2023/10/01 08:50:26;;;;;;;18.55;9.60;;;;;17.40;99528.00;;;;5054727;28;20064;-67
2023/10/01 08:53:00;;;;;;;13.52;8.55;;;;;17.50;99530.00;;;;5055146;28;20056;-66
2023/10/01 08:55:39;;;;;;;14.93;7.38;;;;;17.70;99533.00;;;;5054330;28;20400;-67
2023/10/01 09:00:51;;;;;;;17.10;7.72;;;;;18.00;99535.00;;;;5054983;28;20045;-67
2023/10/01 09:03:34;;;;;;;11.67;7.33;;;;;18.10;99541.00;;;;5053394;28;20127;-67
2023/10/01 09:06:19;;;;;;;12.25;6.82;;;;;18.20;99532.00;;;;5054520;28;20095;-67
2023/10/01 09:08:54;;;;;;;10.60;6.30;;;;;18.30;99534.00;;;;5056094;28;20127;-65
2023/10/01 09:11:42;;;;;;;11.40;6.60;;;;;18.40;99538.00;;;;5054517;28;20098;-65
2023/10/01 09:14:18;;;;;;;10.45;5.85;;;;;18.60;99533.00;;;;5053702;28;20045;-65
2023/10/01 09:16:46;;;;;;;13.02;6.72;;;;;18.60;99527.00;;;;5052819;28;20431;-65
2023/10/01 09:19:35;;;;;;;11.95;6.40;;;;;18.80;99530.00;;;;5054153;28;20048;-65
2023/10/01 09:22:09;;;;;;;14.85;9.27;;;;;19.00;99525.00;;;;5054218;28;20069;-65
2023/10/01 09:24:39;;;;;;;10.60;6.43;;;;;19.10;99519.00;;;;5052245;28;20346;-65
2023/10/01 09:27:18;;;;;;;13.43;7.07;;;;;19.20;99519.00;;;;5051949;28;20049;-65
2023/10/01 09:29:48;;;;;;;54.88;36.40;;;;;19.30;99511.00;;;;5052668;28;20102;-65
2023/10/01 09:32:19;;;;;;;20.48;13.18;;;;;19.40;99526.00;;;;5053770;28;20068;-65
2023/10/01 09:34:57;;;;;;;16.95;11.32;;;;;19.50;99518.00;;;;5053233;28;20051;-66
2023/10/01 09:37:59;;;;;;;14.98;9.20;;;;;19.70;99521.00;;;;5053840;28;20460;-65
2023/10/01 09:43:03;;;;;;;11.13;6.82;;;;;20.00;99518.00;;;;5053735;28;20095;-65
2023/10/01 09:45:39;;;;;;;13.85;6.90;;;;;20.10;99508.00;;;;5052959;28;20049;-66
2023/10/01 09:48:09;;;;;;;13.55;7.25;;;;;20.30;99512.00;;;;5052306;28;20391;-66
2023/10/01 09:50:42;;;;;;;15.35;6.85;;;;;20.40;99513.00;;;;5053421;28;20029;-65
2023/10/01 09:53:12;;;;;;;14.25;5.88;;;;;20.50;99511.00;;;;5053359;28;20045;-64
2023/10/01 09:55:47;;;;;;;12.98;6.70;;;;;20.60;99507.00;;;;5052766;28;20052;-65
2023/10/01 09:58:24;;;;;;;9.80;6.40;;;;;20.70;99511.00;;;;5052207;28;20045;-65
2023/10/01 10:01:00;;;;;;;14.00;7.60;;;;;20.80;99514.00;;;;5053106;28;20159;-64
2023/10/01 10:03:37;;;;;;;13.30;7.07;;;;;20.90;99509.00;;;;5052783;28;20056;-65
2023/10/01 10:06:06;;;;;;;13.43;7.43;;;;;21.10;99516.00;;;;5051958;28;20045;-65
2023/10/01 10:08:42;;;;;;;7.95;5.35;;;;;21.10;99514.00;;;;5053076;28;20045;-65
2023/10/01 10:11:24;;;;;;;10.95;6.00;;;;;21.20;99516.00;;;;5053145;28;20075;-65
2023/10/01 10:13:57;;;;;;;9.57;5.70;;;;;21.30;99516.00;;;;5052924;28;20140;-65
2023/10/01 10:19:08;;;;;;;10.80;6.03;;;;;21.30;99509.00;;;;5051788;28;19931;-65
2023/10/01 10:22:11;;;;;;;10.48;5.68;;;;;21.40;99509.00;;;;5051620;28;20079;-67
2023/10/01 10:24:49;;;;;;;11.43;6.78;;;;;21.40;99509.00;;;;5029858;28;20199;-64
2023/10/01 10:27:19;;;;;;;12.18;6.93;;;;;21.60;99515.00;;;;5050237;28;20060;-65
2023/10/01 10:32:27;;;;;;;12.82;6.85;;;;;21.80;99501.00;;;;5052619;28;20402;-65
2023/10/01 10:35:15;;;;;;;13.68;6.15;;;;;21.80;99494.00;;;;5052224;28;20501;-65
2023/10/01 10:37:47;;;;;;;11.25;6.47;;;;;21.80;99501.00;;;;5052418;28;20048;-66
2023/10/01 10:42:59;;;;;;;12.48;6.45;;;;;22.00;99507.00;;;;5052756;28;20045;-65
2023/10/01 10:45:45;;;;;;;10.32;6.35;;;;;22.20;99496.00;;;;5051931;28;20095;-68
2023/10/01 10:48:21;;;;;;;14.32;7.03;;;;;22.30;99502.00;;;;5052580;28;20041;-68
2023/10/01 10:50:53;;;;;;;11.23;6.13;;;;;22.40;99497.00;;;;5052519;28;20052;-68
2023/10/01 10:53:39;;;;;;;16.05;7.45;;;;;22.50;99500.00;;;;5051512;28;20123;-68
2023/10/01 10:56:08;;;;;;;12.98;6.10;;;;;22.60;99499.00;;;;5052159;28;20105;-68
2023/10/01 10:59:01;;;;;;;16.08;7.32;;;;;22.60;99496.00;;;;5050853;28;20079;-67
2023/10/01 11:01:43;;;;;;;12.05;6.75;;;;;22.60;99486.00;;;;5050959;28;20103;-67
2023/10/01 11:04:11;;;;;;;9.85;6.10;;;;;22.80;99495.00;;;;5051314;28;20049;-67
2023/10/01 11:09:30;;;;;;;11.43;6.65;;;;;22.80;99494.00;;;;5050608;28;20502;-68
2023/10/01 11:12:18;;;;;;;12.98;6.63;;;;;22.90;99496.00;;;;5051998;28;20045;-68
2023/10/01 11:17:47;;;;;;;13.00;6.63;;;;;22.90;99482.00;;;;5050519;28;20086;-68
2023/10/01 11:20:22;;;;;;;9.82;6.05;;;;;23.00;99489.00;;;;5051844;28;20103;-68
2023/10/01 11:22:54;;;;;;;11.77;5.78;;;;;23.00;99490.00;;;;5051780;28;20102;-68
2023/10/01 11:25:22;;;;;;;11.68;6.72;;;;;23.10;99490.00;;;;5051208;28;20128;-68
2023/10/01 11:27:53;;;;;;;10.30;6.35;;;;;23.20;99491.00;;;;5051725;28;20118;-69
2023/10/01 11:30:20;;;;;;;11.10;6.88;;;;;23.30;99478.00;;;;5051768;28;20496;-67
2023/10/01 11:32:58;;;;;;;15.27;8.00;;;;;23.40;99483.00;;;;5051877;28;20040;-68
2023/10/01 11:35:35;;;;;;;12.85;7.38;;;;;23.50;99473.00;;;;5051324;28;20110;-67
2023/10/01 11:38:13;;;;;;;11.68;6.43;;;;;23.50;99469.00;;;;5051880;28;20124;-68
2023/10/01 11:43:35;;;;;;;11.73;7.18;;;;;23.70;99475.00;;;;5051270;28;20049;-67
2023/10/01 11:46:23;;;;;;;11.23;6.22;;;;;23.90;99468.00;;;;5051770;28;20397;-68
2023/10/01 11:48:57;;;;;;;11.90;6.85;;;;;23.90;99455.00;;;;5051784;28;20051;-68
2023/10/01 11:51:43;;;;;;;11.32;7.20;;;;;23.90;99467.00;;;;5054628;28;20043;-65
2023/10/01 11:54:14;;;;;;;17.27;7.90;;;;;24.00;99468.00;;;;5055693;28;20098;-67
2023/10/01 11:57:04;;;;;;;14.35;7.22;;;;;24.10;99460.00;;;;5054391;28;20055;-65
2023/10/01 11:59:32;;;;;;;12.35;7.03;;;;;24.20;99464.00;;;;5055472;28;20040;-67
2023/10/01 12:02:18;;;;;;;12.00;6.78;;;;;24.30;99459.00;;;;5055462;28;20040;-67
2023/10/01 12:04:48;;;;;;;14.07;7.32;;;;;24.30;99459.00;;;;5054980;28;20068;-66
2023/10/01 12:07:18;;;;;;;13.73;7.25;;;;;24.30;99449.00;;;;5054422;28;20409;-66
2023/10/01 12:09:49;;;;;;;14.57;8.55;;;;;24.40;99438.00;;;;5055376;28;20444;-67
2023/10/01 12:12:21;;;;;;;15.40;7.43;;;;;24.50;99447.00;;;;5054174;28;20118;-68
2023/10/01 12:15:33;;;;;;;13.02;8.07;;;;;24.60;99445.00;;;;5053082;28;20045;-67
2023/10/01 12:17:46;;;;;;;63.47;40.67;;;;;24.70;99442.00;;;;5053525;28;20067;-66
2023/10/01 12:20:22;;;;;;;17.38;11.10;;;;;24.70;99438.00;;;;5054753;28;20048;-67
2023/10/01 12:26:31;;;;;;;13.50;7.57;;;;;24.60;99436.00;;;;5054486;28;20071;-67
2023/10/01 12:29:10;;;;;;;14.43;7.57;;;;;24.60;99428.00;;;;5055074;28;20041;-67
2023/10/01 12:31:27;;;;;;;14.63;7.80;;;;;24.80;99438.00;;;;5054876;28;20101;-67
2023/10/01 12:33:58;;;;;;;15.45;8.90;;;;;24.90;99427.00;;;;5053364;28;20040;-66
2023/10/01 12:36:31;;;;;;;13.70;7.60;;;;;25.00;99430.00;;;;5055025;28;20127;-67
2023/10/01 12:39:16;;;;;;;15.48;8.77;;;;;25.10;99422.00;;;;5054839;28;20048;-67
2023/10/01 12:41:56;;;;;;;15.23;8.90;;;;;25.10;99425.00;;;;5053585;28;20051;-67
2023/10/01 12:44:36;;;;;;;14.13;8.35;;;;;25.20;99422.00;;;;5054269;28;20037;-66
2023/10/01 12:47:08;;;;;;;15.10;9.52;;;;;25.30;99430.00;;;;5053484;28;20049;-66
2023/10/01 12:49:35;;;;;;;17.17;9.48;;;;;25.30;99422.00;;;;5055124;28;20155;-65
2023/10/01 12:52:08;;;;;;;14.93;8.73;;;;;25.30;99424.00;;;;5053672;28;20045;-66
2023/10/01 12:54:36;;;;;;;14.98;9.02;;;;;25.20;99418.00;;;;5053096;28;20151;-66
2023/10/01 12:57:13;;;;;;;13.68;8.50;;;;;25.20;99407.00;;;;5053384;28;20489;-66
2023/10/01 12:59:41;;;;;;;15.05;7.72;;;;;25.30;99409.00;;;;5054518;28;20379;-66
2023/10/01 13:02:22;;;;;;;14.20;8.35;;;;;25.30;99410.00;;;;5053286;28;20057;-67
2023/10/01 13:05:16;;;;;;;14.25;8.20;;;;;25.40;99407.00;;;;5052732;28;20466;-67
2023/10/01 13:07:45;;;;;;;14.38;7.97;;;;;25.60;99397.00;;;;5054436;28;20041;-67
2023/10/01 13:10:14;;;;;;;15.38;8.60;;;;;25.70;99394.00;;;;5054426;28;20037;-67
2023/10/01 13:12:55;;;;;;;14.60;8.55;;;;;25.70;99400.00;;;;5054339;28;20073;-67
2023/10/01 13:15:40;;;;;;;12.82;8.40;;;;;25.70;99401.00;;;;5052180;28;20116;-67
2023/10/01 13:18:22;;;;;;;11.95;7.32;;;;;25.80;99383.00;;;;5052920;28;20049;-67
2023/10/01 13:23:24;;;;;;;14.30;8.07;;;;;25.90;99382.00;;;;5054802;28;20215;-68
2023/10/01 13:26:05;;;;;;;14.75;8.90;;;;;26.00;99389.00;;;;5053775;28;20041;-68
2023/10/01 13:28:43;;;;;;;14.68;8.88;;;;;26.10;99378.00;;;;5055001;28;20041;-65
2023/10/01 13:32:02;;;;;;;14.73;8.60;;;;;26.10;99380.00;;;;5054187;28;20041;-67
2023/10/01 13:34:09;;;;;;;16.42;9.05;;;;;26.20;99375.00;;;;5053168;28;20425;-67
2023/10/01 14:09:48;;;;;;;15.93;9.65;;;;;26.10;99348.00;;;;5053203;28;20045;-67
2023/10/01 14:15:20;;;;;;;15.50;9.43;;;;;26.10;99343.00;;;;5052561;28;20083;-67
2023/10/01 14:17:52;;;;;;;;;;;;;26.10;99341.00;;;;5054953;28;20049;-66
2023/10/01 14:20:38;;;;;;;15.15;8.93;;;;;26.10;99341.00;;;;5053076;28;20408;-67
2023/10/01 14:23:07;;;;;;;15.90;9.13;;;;;26.10;99342.00;;;;5052998;28;20037;-67
2023/10/01 14:25:52;;;;;;;15.52;9.10;;;;;26.00;99337.00;;;;5052228;28;20052;-66
2023/10/01 14:28:23;;;;;;;15.57;9.27;;;;;25.90;99333.00;;;;5052857;28;20049;-67